Time,TemperatureF,DewpointF,PressureIn,WindDirection,WindDirectionDegrees,WindSpeedMPH,WindSpeedGustMPH,Humidity,HourlyPrecipIn,Conditions,Clouds,dailyrainin,SoftwareType,DateUTC
2013-07-24 00:02:00,66.0,46.0,-100.00,WNW,300,4.0,7.0,48,0.00,,,0.00,,2013-07-24 08:02:00,
2013-07-24 00:12:00,66.0,46.0,-100.00,WNW,300,4.0,7.0,48,0.00,,,0.00,,2013-07-24 08:12:00,
2013-07-24 00:20:00,65.0,47.0,-100.00,WNW,295,3.0,7.0,52,0.00,,,0.00,,2013-07-24 08:20:00,
2013-07-24 00:32:00,65.0,46.0,-100.00,NW,305,4.0,7.0,50,0.00,,,0.00,,2013-07-24 08:32:00,
2013-07-24 00:42:00,65.0,46.0,-100.00,NW,305,4.0,7.0,50,0.00,,,0.00,,2013-07-24 08:42:00,
2013-07-24 00:52:00,65.0,47.0,-100.00,WNW,295,3.0,7.0,52,0.00,,,0.00,,2013-07-24 08:52:00,
2013-07-24 01:02:00,65.0,47.0,-100.00,WNW,295,3.0,7.0,52,0.00,,,0.00,,2013-07-24 09:02:00,
2013-07-24 01:12:00,65.0,47.0,-100.00,WNW,295,3.0,7.0,52,0.00,,,0.00,,2013-07-24 09:12:00,
2013-07-24 01:20:00,64.0,48.0,-100.00,NW,310,4.0,12.0,56,0.00,,,0.00,,2013-07-24 09:20:00,
2013-07-24 01:43:00,65.0,47.0,-100.00,WNW,300,4.0,10.0,52,0.00,,,0.00,,2013-07-24 09:43:00,
2013-07-24 02:02:00,64.0,48.0,-100.00,NW,310,4.0,12.0,56,0.00,,,0.00,,2013-07-24 10:02:00,
2013-07-24 02:12:00,64.0,48.0,-100.00,NW,310,4.0,12.0,56,0.00,,,0.00,,2013-07-24 10:12:00,
2013-07-24 02:43:00,63.0,48.0,-100.00,NW,320,4.0,10.0,57,0.00,,,0.00,,2013-07-24 10:43:00,
2013-07-24 03:02:00,63.0,48.0,-100.00,NW,315,6.0,10.0,59,0.00,,,0.00,,2013-07-24 11:02:00,
2013-07-24 03:12:00,63.0,48.0,-100.00,NW,315,6.0,10.0,59,0.00,,,0.00,,2013-07-24 11:12:00,
2013-07-24 03:32:00,62.0,49.0,-100.00,NNW,330,6.0,13.0,60,0.00,,,0.00,,2013-07-24 11:32:00,
2013-07-24 03:43:00,62.0,49.0,-100.00,NNW,330,6.0,13.0,60,0.00,,,0.00,,2013-07-24 11:43:00,
2013-07-24 04:02:00,61.0,49.0,-100.00,NW,315,6.0,11.0,64,0.00,,,0.00,,2013-07-24 12:02:00,
2013-07-24 04:12:00,61.0,49.0,-100.00,NW,315,6.0,11.0,64,0.00,,,0.00,,2013-07-24 12:12:00,
2013-07-24 04:42:00,60.0,49.0,-100.00,WNW,290,3.0,9.0,67,0.00,,,0.00,,2013-07-24 12:42:00,
2013-07-24 05:02:00,60.0,49.0,-100.00,NW,310,4.0,10.0,68,0.00,,,0.00,,2013-07-24 13:02:00,
2013-07-24 05:12:00,60.0,49.0,-100.00,NW,310,4.0,10.0,68,0.00,,,0.00,,2013-07-24 13:12:00,
2013-07-24 05:32:00,59.0,50.0,-100.00,WNW,295,4.0,9.0,69,0.00,,,0.00,,2013-07-24 13:32:00,
2013-07-24 05:43:00,59.0,50.0,-100.00,WNW,295,4.0,9.0,69,0.00,,,0.00,,2013-07-24 13:43:00,
2013-07-24 06:02:00,59.0,50.0,-100.00,WNW,285,4.0,8.0,69,0.00,,,0.00,,2013-07-24 14:02:00,
2013-07-24 06:12:00,59.0,50.0,-100.00,WNW,285,4.0,8.0,69,0.00,,,0.00,,2013-07-24 14:12:00,
2013-07-24 06:20:00,59.0,50.0,-100.00,West,275,6.0,10.0,71,0.00,,,0.00,,2013-07-24 14:20:00,
2013-07-24 06:43:00,59.0,50.0,-100.00,West,280,6.0,9.0,71,0.00,,,0.00,,2013-07-24 14:43:00,
2013-07-24 07:02:00,59.0,50.0,-100.00,West,275,6.0,10.0,71,0.00,,,0.00,,2013-07-24 15:02:00,
2013-07-24 07:12:00,59.0,50.0,-100.00,West,275,6.0,10.0,71,0.00,,,0.00,,2013-07-24 15:12:00,
2013-07-24 07:32:00,58.0,50.0,-100.00,WNW,290,7.0,13.0,72,0.00,,,0.00,,2013-07-24 15:32:00,
2013-07-24 07:43:00,58.0,50.0,-100.00,WNW,290,7.0,13.0,72,0.00,,,0.00,,2013-07-24 15:43:00,
2013-07-24 07:52:00,58.0,50.0,-100.00,West,270,9.0,16.0,74,0.00,,,0.00,,2013-07-24 15:52:00,
2013-07-24 08:02:00,58.0,50.0,-100.00,West,270,9.0,16.0,74,0.00,,,0.00,,2013-07-24 16:02:00,
2013-07-24 08:12:00,58.0,50.0,-100.00,West,270,9.0,16.0,74,0.00,,,0.00,,2013-07-24 16:12:00,
2013-07-24 08:32:00,59.0,50.0,-100.00,WNW,285,7.0,12.0,73,0.00,,,0.00,,2013-07-24 16:32:00,
2013-07-24 08:43:00,59.0,50.0,-100.00,WNW,285,7.0,12.0,73,0.00,,,0.00,,2013-07-24 16:43:00,
2013-07-24 08:53:00,59.0,50.0,-100.00,West,280,7.0,12.0,73,0.00,,,0.00,,2013-07-24 16:53:00,
2013-07-24 09:02:00,59.0,50.0,-100.00,West,280,7.0,12.0,73,0.00,,,0.00,,2013-07-24 17:02:00,
2013-07-24 09:12:00,59.0,50.0,-100.00,West,280,7.0,12.0,73,0.00,,,0.00,,2013-07-24 17:12:00,
2013-07-24 09:20:00,59.0,50.0,-100.00,West,275,7.0,14.0,72,0.00,,,0.00,,2013-07-24 17:20:00,
2013-07-24 09:33:00,59.0,50.0,-100.00,West,280,11.0,16.0,71,0.00,,,0.00,,2013-07-24 17:33:00,
2013-07-24 09:43:00,59.0,50.0,-100.00,West,280,11.0,16.0,71,0.00,,,0.00,,2013-07-24 17:43:00,
2013-07-24 09:53:00,59.0,50.0,-100.00,West,275,7.0,14.0,72,0.00,,,0.00,,2013-07-24 17:53:00,
2013-07-24 10:02:00,59.0,50.0,-100.00,West,275,7.0,14.0,72,0.00,,,0.00,,2013-07-24 18:02:00,
2013-07-24 10:12:00,59.0,50.0,-100.00,West,275,7.0,14.0,72,0.00,,,0.00,,2013-07-24 18:12:00,
2013-07-24 10:20:00,62.0,51.0,-100.00,West,270,6.0,12.0,66,0.00,,,0.00,,2013-07-24 18:20:00,
2013-07-24 10:52:00,62.0,51.0,-100.00,West,270,6.0,12.0,66,0.00,,,0.00,,2013-07-24 18:52:00,
2013-07-24 11:02:00,62.0,51.0,-100.00,West,270,6.0,12.0,66,0.00,,,0.00,,2013-07-24 19:02:00,
2013-07-24 11:12:00,62.0,51.0,-100.00,West,270,6.0,12.0,66,0.00,,,0.00,,2013-07-24 19:12:00,
2013-07-24 11:43:00,63.0,51.0,-100.00,West,280,9.0,12.0,64,0.00,,,0.00,,2013-07-24 19:43:00,
2013-07-24 11:53:00,64.0,51.0,-100.00,West,280,4.0,11.0,62,0.00,,,0.00,,2013-07-24 19:53:00,
2013-07-24 12:02:00,64.0,51.0,-100.00,West,280,4.0,11.0,62,0.00,,,0.00,,2013-07-24 20:02:00,
2013-07-24 12:13:00,64.0,51.0,-100.00,West,280,4.0,11.0,62,0.00,,,0.00,,2013-07-24 20:13:00,
2013-07-24 12:32:00,64.0,51.0,-100.00,WNW,295,6.0,11.0,62,0.00,,,0.00,,2013-07-24 20:32:00,
2013-07-24 12:42:00,64.0,51.0,-100.00,WNW,295,6.0,11.0,62,0.00,,,0.00,,2013-07-24 20:42:00,
2013-07-24 12:52:00,63.0,51.0,-100.00,NW,315,6.0,9.0,65,0.00,,,0.00,,2013-07-24 20:52:00,
2013-07-24 13:02:00,63.0,51.0,-100.00,NW,315,6.0,9.0,65,0.00,,,0.00,,2013-07-24 21:02:00,
2013-07-24 13:12:00,63.0,51.0,-100.00,NW,315,6.0,9.0,65,0.00,,,0.00,,2013-07-24 21:12:00,
2013-07-24 13:32:00,62.0,51.0,-100.00,NW,305,4.0,11.0,67,0.00,,,0.00,,2013-07-24 21:32:00,
2013-07-24 13:43:00,62.0,51.0,-100.00,NW,305,4.0,11.0,67,0.00,,,0.00,,2013-07-24 21:43:00,
2013-07-24 14:02:00,64.0,52.0,-100.00,WNW,290,4.0,9.0,65,0.00,,,0.00,,2013-07-24 22:02:00,
2013-07-24 14:12:00,64.0,52.0,-100.00,WNW,290,4.0,9.0,65,0.00,,,0.00,,2013-07-24 22:12:00,
2013-07-24 14:43:00,63.0,51.0,-100.00,West,275,6.0,15.0,64,0.00,,,0.00,,2013-07-24 22:43:00,
2013-07-24 14:53:00,65.0,52.0,-100.00,WNW,290,6.0,11.0,60,0.00,,,0.00,,2013-07-24 22:53:00,
2013-07-24 15:02:00,65.0,52.0,-100.00,WNW,290,6.0,11.0,60,0.00,,,0.00,,2013-07-24 23:02:00,
2013-07-24 15:12:00,65.0,52.0,-100.00,WNW,290,6.0,11.0,60,0.00,,,0.00,,2013-07-24 23:12:00,
2013-07-24 15:32:00,66.0,51.0,-100.00,West,275,9.0,12.0,58,0.00,,,0.00,,2013-07-24 23:32:00,
2013-07-24 15:43:00,66.0,51.0,-100.00,West,275,9.0,12.0,58,0.00,,,0.00,,2013-07-24 23:43:00,
2013-07-24 16:02:00,68.0,52.0,-100.00,SW,220,4.0,14.0,55,0.00,,,0.00,,2013-07-25 00:02:00,
2013-07-24 16:12:00,68.0,52.0,-100.00,SW,220,4.0,14.0,55,0.00,,,0.00,,2013-07-25 00:12:00,
2013-07-24 16:33:00,67.0,51.0,-100.00,West,280,6.0,11.0,55,0.00,,,0.00,,2013-07-25 00:33:00,
2013-07-24 16:43:00,67.0,51.0,-100.00,West,280,6.0,11.0,55,0.00,,,0.00,,2013-07-25 00:43:00,
2013-07-24 17:02:00,61.0,56.0,-100.00,WNW,300,7.0,12.0,83,0.03,,,0.03,,2013-07-25 01:02:00,
2013-07-24 17:12:00,61.0,56.0,-100.00,WNW,300,7.0,12.0,83,0.03,,,0.03,,2013-07-25 01:12:00,
2013-07-24 17:32:00,62.0,56.0,-100.00,West,280,7.0,13.0,79,0.03,,,0.03,,2013-07-25 01:32:00,
2013-07-24 17:42:00,62.0,56.0,-100.00,West,280,7.0,13.0,79,0.03,,,0.03,,2013-07-25 01:42:00,
2013-07-24 18:02:00,63.0,54.0,-100.00,West,270,9.0,17.0,72,0.00,,,0.03,,2013-07-25 02:02:00,
2013-07-24 18:12:00,63.0,54.0,-100.00,West,270,9.0,17.0,72,0.00,,,0.03,,2013-07-25 02:12:00,
2013-07-24 18:22:00,63.0,53.0,-100.00,NW,305,6.0,17.0,69,0.00,,,0.03,,2013-07-25 02:22:00,
2013-07-24 18:33:00,63.0,53.0,-100.00,NW,305,6.0,17.0,69,0.00,,,0.03,,2013-07-25 02:33:00,
2013-07-24 18:43:00,63.0,53.0,-100.00,NW,305,6.0,17.0,69,0.00,,,0.03,,2013-07-25 02:43:00,
2013-07-24 19:02:00,63.0,52.0,-100.00,West,275,7.0,14.0,68,0.00,,,0.03,,2013-07-25 03:02:00,
2013-07-24 19:13:00,63.0,52.0,-100.00,West,275,7.0,14.0,68,0.00,,,0.03,,2013-07-25 03:13:00,
2013-07-24 19:20:00,63.0,52.0,-100.00,WNW,285,6.0,12.0,67,0.00,,,0.03,,2013-07-25 03:20:00,
2013-07-24 19:34:00,64.0,53.0,-100.00,WNW,290,7.0,12.0,66,0.00,,,0.03,,2013-07-25 03:34:00,
2013-07-24 19:44:00,64.0,53.0,-100.00,WNW,290,7.0,12.0,66,0.00,,,0.03,,2013-07-25 03:44:00,
2013-07-24 20:02:00,63.0,52.0,-100.00,WNW,285,6.0,12.0,67,0.00,,,0.03,,2013-07-25 04:02:00,
2013-07-24 20:12:00,63.0,52.0,-100.00,WNW,285,6.0,12.0,67,0.00,,,0.03,,2013-07-25 04:12:00,
2013-07-24 20:20:00,63.0,52.0,-100.00,WNW,290,5.0,12.0,66,0.00,,,0.03,,2013-07-25 04:20:00,
2013-07-24 20:43:00,63.0,52.0,-100.00,West,275,7.0,12.0,66,0.00,,,0.03,,2013-07-25 04:43:00,
2013-07-24 21:02:00,63.0,52.0,-100.00,WNW,290,5.0,12.0,66,0.00,,,0.03,,2013-07-25 05:02:00,
2013-07-24 21:12:00,63.0,52.0,-100.00,WNW,290,5.0,12.0,66,0.00,,,0.03,,2013-07-25 05:12:00,
2013-07-24 21:43:00,63.0,52.0,-100.00,West,280,5.0,11.0,67,0.00,,,0.03,,2013-07-25 05:43:00,
2013-07-24 22:02:00,63.0,52.0,-100.00,WNW,295,4.0,10.0,67,0.00,,,0.03,,2013-07-25 06:02:00,
2013-07-24 22:12:00,63.0,52.0,-100.00,WNW,295,4.0,10.0,67,0.00,,,0.03,,2013-07-25 06:12:00,
2013-07-24 22:32:00,62.0,52.0,-100.00,NW,305,6.0,9.0,69,0.00,,,0.03,,2013-07-25 06:32:00,
2013-07-24 22:42:00,62.0,52.0,-100.00,NW,305,6.0,9.0,69,0.00,,,0.03,,2013-07-25 06:42:00,
2013-07-24 23:02:00,61.0,52.0,-100.00,NW,305,7.0,12.0,71,0.00,,,0.03,,2013-07-25 07:02:00,
2013-07-24 23:12:00,61.0,52.0,-100.00,NW,305,7.0,12.0,71,0.00,,,0.03,,2013-07-25 07:12:00,
2013-07-24 23:32:00,60.0,52.0,-100.00,West,275,6.0,16.0,73,0.00,,,0.03,,2013-07-25 07:32:00,
2013-07-24 23:43:00,60.0,52.0,-100.00,West,275,6.0,16.0,73,0.00,,,0.03,,2013-07-25 07:43:00,
2013-07-24 23:53:00,60.0,52.0,-100.00,WNW,285,7.0,17.0,75,0.00,,,0.03,,2013-07-25 07:53:00,